sensor_id;sensor_type;location;lat;lon;timestamp;P1;durP1;ratioP1;P2;durP2;ratioP2
6105;SDS011;3083;51.508;7.966;2022-11-21T00:01:51;27.80;;;9.87;;
6105;SDS011;3083;51.508;7.966;2022-11-21T00:04:19;26.60;;;9.90;;
6105;SDS011;3083;51.508;7.966;2022-11-21T00:06:46;30.93;;;11.23;;
6105;SDS011;3083;51.508;7.966;2022-11-21T00:09:13;41.80;;;10.97;;
6105;SDS011;3083;51.508;7.966;2022-11-21T00:11:41;56.83;;;11.97;;
6105;SDS011;3083;51.508;7.966;2022-11-21T00:14:08;54.33;;;14.50;;
6105;SDS011;3083;51.508;7.966;2022-11-21T00:16:35;78.07;;;12.50;;
6105;SDS011;3083;51.508;7.966;2022-11-21T00:19:02;57.77;;;11.77;;
6105;SDS011;3083;51.508;7.966;2022-11-21T00:21:29;53.00;;;13.23;;
6105;SDS011;3083;51.508;7.966;2022-11-21T00:23:56;49.03;;;12.53;;
6105;SDS011;3083;51.508;7.966;2022-11-21T00:26:22;50.03;;;12.30;;
6105;SDS011;3083;51.508;7.966;2022-11-21T00:28:51;44.77;;;11.43;;
6105;SDS011;3083;51.508;7.966;2022-11-21T00:31:18;34.27;;;10.97;;
6105;SDS011;3083;51.508;7.966;2022-11-21T00:33:47;35.60;;;10.57;;
6105;SDS011;3083;51.508;7.966;2022-11-21T00:36:14;30.23;;;10.97;;
6105;SDS011;3083;51.508;7.966;2022-11-21T00:38:41;30.13;;;11.40;;
6105;SDS011;3083;51.508;7.966;2022-11-21T00:41:08;31.03;;;10.33;;
6105;SDS011;3083;51.508;7.966;2022-11-21T00:43:36;26.20;;;10.70;;
6105;SDS011;3083;51.508;7.966;2022-11-21T00:46:04;23.67;;;10.07;;
6105;SDS011;3083;51.508;7.966;2022-11-21T00:48:31;30.20;;;11.07;;
6105;SDS011;3083;51.508;7.966;2022-11-21T00:50:58;28.93;;;11.60;;
6105;SDS011;3083;51.508;7.966;2022-11-21T00:53:25;28.57;;;9.87;;
6105;SDS011;3083;51.508;7.966;2022-11-21T00:55:53;26.00;;;10.50;;
6105;SDS011;3083;51.508;7.966;2022-11-21T00:58:20;26.67;;;10.63;;
6105;SDS011;3083;51.508;7.966;2022-11-21T01:00:47;25.83;;;9.37;;
6105;SDS011;3083;51.508;7.966;2022-11-21T01:03:15;26.10;;;10.03;;
6105;SDS011;3083;51.508;7.966;2022-11-21T01:05:42;26.50;;;10.10;;
6105;SDS011;3083;51.508;7.966;2022-11-21T01:08:09;24.77;;;10.33;;
6105;SDS011;3083;51.508;7.966;2022-11-21T01:10:36;31.93;;;10.70;;
6105;SDS011;3083;51.508;7.966;2022-11-21T01:13:03;28.30;;;11.07;;
6105;SDS011;3083;51.508;7.966;2022-11-21T01:15:30;22.10;;;9.00;;
6105;SDS011;3083;51.508;7.966;2022-11-21T01:17:58;38.03;;;10.57;;
6105;SDS011;3083;51.508;7.966;2022-11-21T01:20:27;33.30;;;11.13;;
6105;SDS011;3083;51.508;7.966;2022-11-21T01:22:53;27.43;;;10.20;;
6105;SDS011;3083;51.508;7.966;2022-11-21T01:25:21;32.97;;;12.27;;
6105;SDS011;3083;51.508;7.966;2022-11-21T01:27:48;49.10;;;11.80;;
6105;SDS011;3083;51.508;7.966;2022-11-21T01:30:15;27.03;;;9.73;;
6105;SDS011;3083;51.508;7.966;2022-11-21T01:32:42;24.73;;;10.00;;
6105;SDS011;3083;51.508;7.966;2022-11-21T01:35:09;29.43;;;11.03;;
6105;SDS011;3083;51.508;7.966;2022-11-21T01:37:39;40.53;;;10.17;;
6105;SDS011;3083;51.508;7.966;2022-11-21T01:40:07;42.07;;;12.27;;
6105;SDS011;3083;51.508;7.966;2022-11-21T01:42:43;56.90;;;11.90;;
6105;SDS011;3083;51.508;7.966;2022-11-21T01:48:18;115.13;;;15.70;;
6105;SDS011;3083;51.508;7.966;2022-11-21T01:50:47;80.50;;;13.30;;
6105;SDS011;3083;51.508;7.966;2022-11-21T01:53:16;53.27;;;12.70;;
6105;SDS011;3083;51.508;7.966;2022-11-21T01:55:43;95.47;;;14.67;;
6105;SDS011;3083;51.508;7.966;2022-11-21T01:58:10;133.40;;;16.70;;
6105;SDS011;3083;51.508;7.966;2022-11-21T02:00:38;90.07;;;13.70;;
6105;SDS011;3083;51.508;7.966;2022-11-21T02:03:08;64.90;;;14.03;;
6105;SDS011;3083;51.508;7.966;2022-11-21T02:05:38;45.23;;;11.87;;
6105;SDS011;3083;51.508;7.966;2022-11-21T02:08:07;32.93;;;10.73;;
6105;SDS011;3083;51.508;7.966;2022-11-21T02:10:45;31.90;;;10.90;;
6105;SDS011;3083;51.508;7.966;2022-11-21T02:13:16;35.27;;;10.50;;
6105;SDS011;3083;51.508;7.966;2022-11-21T02:15:43;88.07;;;15.03;;
6105;SDS011;3083;51.508;7.966;2022-11-21T02:18:11;40.03;;;9.77;;
6105;SDS011;3083;51.508;7.966;2022-11-21T02:20:38;70.70;;;10.67;;
6105;SDS011;3083;51.508;7.966;2022-11-21T02:23:09;72.40;;;12.47;;
6105;SDS011;3083;51.508;7.966;2022-11-21T02:25:44;65.53;;;12.60;;
6105;SDS011;3083;51.508;7.966;2022-11-21T02:28:11;56.17;;;11.60;;
6105;SDS011;3083;51.508;7.966;2022-11-21T02:30:41;49.07;;;12.47;;
6105;SDS011;3083;51.508;7.966;2022-11-21T02:33:09;39.53;;;10.80;;
6105;SDS011;3083;51.508;7.966;2022-11-21T02:35:36;52.00;;;10.23;;
6105;SDS011;3083;51.508;7.966;2022-11-21T02:38:04;30.03;;;9.20;;
6105;SDS011;3083;51.508;7.966;2022-11-21T02:40:38;36.43;;;10.70;;
6105;SDS011;3083;51.508;7.966;2022-11-21T02:43:09;31.53;;;10.27;;
6105;SDS011;3083;51.508;7.966;2022-11-21T02:45:43;31.27;;;10.30;;
6105;SDS011;3083;51.508;7.966;2022-11-21T02:48:12;25.33;;;10.50;;
6105;SDS011;3083;51.508;7.966;2022-11-21T02:50:39;28.20;;;10.13;;
6105;SDS011;3083;51.508;7.966;2022-11-21T02:53:08;25.93;;;9.57;;
6105;SDS011;3083;51.508;7.966;2022-11-21T02:55:38;24.53;;;8.97;;
6105;SDS011;3083;51.508;7.966;2022-11-21T02:58:05;21.83;;;9.10;;
6105;SDS011;3083;51.508;7.966;2022-11-21T03:00:34;24.47;;;9.83;;
6105;SDS011;3083;51.508;7.966;2022-11-21T03:03:02;23.23;;;9.70;;
6105;SDS011;3083;51.508;7.966;2022-11-21T03:05:30;22.53;;;9.00;;
6105;SDS011;3083;51.508;7.966;2022-11-21T03:07:57;33.67;;;10.00;;
6105;SDS011;3083;51.508;7.966;2022-11-21T03:10:24;33.17;;;11.67;;
6105;SDS011;3083;51.508;7.966;2022-11-21T03:12:51;25.53;;;9.13;;
6105;SDS011;3083;51.508;7.966;2022-11-21T03:15:25;33.83;;;11.73;;
6105;SDS011;3083;51.508;7.966;2022-11-21T03:17:55;26.33;;;9.67;;
6105;SDS011;3083;51.508;7.966;2022-11-21T03:20:22;27.83;;;10.30;;
6105;SDS011;3083;51.508;7.966;2022-11-21T03:22:49;30.70;;;9.87;;
6105;SDS011;3083;51.508;7.966;2022-11-21T03:25:17;30.63;;;11.37;;
6105;SDS011;3083;51.508;7.966;2022-11-21T03:27:44;29.30;;;10.00;;
6105;SDS011;3083;51.508;7.966;2022-11-21T03:30:12;31.50;;;10.63;;
6105;SDS011;3083;51.508;7.966;2022-11-21T03:32:39;28.70;;;11.00;;
6105;SDS011;3083;51.508;7.966;2022-11-21T03:35:08;41.80;;;13.40;;
6105;SDS011;3083;51.508;7.966;2022-11-21T03:37:35;27.20;;;10.63;;
6105;SDS011;3083;51.508;7.966;2022-11-21T03:40:02;37.47;;;12.20;;
6105;SDS011;3083;51.508;7.966;2022-11-21T03:42:29;29.30;;;9.40;;
6105;SDS011;3083;51.508;7.966;2022-11-21T03:44:56;28.27;;;10.90;;
6105;SDS011;3083;51.508;7.966;2022-11-21T03:47:23;29.80;;;10.80;;
6105;SDS011;3083;51.508;7.966;2022-11-21T03:49:51;34.40;;;9.93;;
6105;SDS011;3083;51.508;7.966;2022-11-21T03:52:20;22.90;;;8.80;;
6105;SDS011;3083;51.508;7.966;2022-11-21T03:54:47;33.93;;;11.13;;
6105;SDS011;3083;51.508;7.966;2022-11-21T03:57:14;37.00;;;11.07;;
6105;SDS011;3083;51.508;7.966;2022-11-21T03:59:41;30.93;;;10.87;;
6105;SDS011;3083;51.508;7.966;2022-11-21T04:02:08;30.53;;;10.77;;
6105;SDS011;3083;51.508;7.966;2022-11-21T04:04:34;27.13;;;9.37;;
6105;SDS011;3083;51.508;7.966;2022-11-21T04:07:02;28.93;;;10.50;;
6105;SDS011;3083;51.508;7.966;2022-11-21T04:09:30;35.80;;;10.20;;
6105;SDS011;3083;51.508;7.966;2022-11-21T04:11:58;36.57;;;11.17;;
6105;SDS011;3083;51.508;7.966;2022-11-21T04:14:25;32.80;;;11.27;;
6105;SDS011;3083;51.508;7.966;2022-11-21T04:16:52;35.43;;;11.10;;
6105;SDS011;3083;51.508;7.966;2022-11-21T04:19:18;31.73;;;10.43;;
6105;SDS011;3083;51.508;7.966;2022-11-21T04:21:45;34.03;;;10.13;;
6105;SDS011;3083;51.508;7.966;2022-11-21T04:24:12;32.63;;;9.80;;
6105;SDS011;3083;51.508;7.966;2022-11-21T04:26:41;36.57;;;10.73;;
6105;SDS011;3083;51.508;7.966;2022-11-21T04:29:08;32.73;;;11.33;;
6105;SDS011;3083;51.508;7.966;2022-11-21T04:31:35;30.47;;;10.73;;
6105;SDS011;3083;51.508;7.966;2022-11-21T04:34:02;32.10;;;11.20;;
6105;SDS011;3083;51.508;7.966;2022-11-21T04:36:29;33.17;;;11.70;;
6105;SDS011;3083;51.508;7.966;2022-11-21T04:38:57;32.87;;;11.27;;
6105;SDS011;3083;51.508;7.966;2022-11-21T04:41:23;39.47;;;13.53;;
6105;SDS011;3083;51.508;7.966;2022-11-21T04:43:52;38.97;;;14.43;;
6105;SDS011;3083;51.508;7.966;2022-11-21T04:46:19;34.00;;;12.83;;
6105;SDS011;3083;51.508;7.966;2022-11-21T04:48:46;40.67;;;12.67;;
6105;SDS011;3083;51.508;7.966;2022-11-21T04:51:13;35.90;;;11.73;;
6105;SDS011;3083;51.508;7.966;2022-11-21T04:53:40;35.40;;;12.90;;
6105;SDS011;3083;51.508;7.966;2022-11-21T04:56:07;40.03;;;13.03;;
6105;SDS011;3083;51.508;7.966;2022-11-21T04:58:34;34.67;;;11.40;;
6105;SDS011;3083;51.508;7.966;2022-11-21T05:01:06;36.80;;;11.80;;
6105;SDS011;3083;51.508;7.966;2022-11-21T05:03:33;38.17;;;12.40;;
6105;SDS011;3083;51.508;7.966;2022-11-21T05:06:00;38.23;;;11.73;;
6105;SDS011;3083;51.508;7.966;2022-11-21T05:08:27;36.40;;;11.30;;
6105;SDS011;3083;51.508;7.966;2022-11-21T05:10:54;37.27;;;11.77;;
6105;SDS011;3083;51.508;7.966;2022-11-21T05:13:39;29.70;;;11.07;;
6105;SDS011;3083;51.508;7.966;2022-11-21T05:16:07;34.30;;;11.77;;
6105;SDS011;3083;51.508;7.966;2022-11-21T05:18:34;35.80;;;11.57;;
6105;SDS011;3083;51.508;7.966;2022-11-21T05:21:02;28.70;;;10.37;;
6105;SDS011;3083;51.508;7.966;2022-11-21T05:23:29;30.30;;;9.87;;
6105;SDS011;3083;51.508;7.966;2022-11-21T05:25:56;36.20;;;11.43;;
6105;SDS011;3083;51.508;7.966;2022-11-21T05:28:23;27.97;;;9.90;;
6105;SDS011;3083;51.508;7.966;2022-11-21T05:30:50;28.73;;;10.40;;
6105;SDS011;3083;51.508;7.966;2022-11-21T05:33:19;26.93;;;8.33;;
6105;SDS011;3083;51.508;7.966;2022-11-21T05:35:46;30.90;;;10.27;;
6105;SDS011;3083;51.508;7.966;2022-11-21T05:38:13;29.33;;;11.40;;
6105;SDS011;3083;51.508;7.966;2022-11-21T05:40:40;26.70;;;10.03;;
6105;SDS011;3083;51.508;7.966;2022-11-21T05:43:08;34.63;;;10.07;;
6105;SDS011;3083;51.508;7.966;2022-11-21T05:45:53;23.93;;;7.50;;
6105;SDS011;3083;51.508;7.966;2022-11-21T05:48:23;29.07;;;10.83;;
6105;SDS011;3083;51.508;7.966;2022-11-21T05:50:49;33.37;;;9.70;;
6105;SDS011;3083;51.508;7.966;2022-11-21T05:53:17;27.87;;;9.43;;
6105;SDS011;3083;51.508;7.966;2022-11-21T05:55:44;31.37;;;8.97;;
6105;SDS011;3083;51.508;7.966;2022-11-21T05:58:11;27.00;;;9.80;;
6105;SDS011;3083;51.508;7.966;2022-11-21T06:00:38;25.57;;;9.33;;
6105;SDS011;3083;51.508;7.966;2022-11-21T06:03:07;29.17;;;8.53;;
6105;SDS011;3083;51.508;7.966;2022-11-21T06:05:58;28.23;;;9.27;;
6105;SDS011;3083;51.508;7.966;2022-11-21T06:08:26;35.43;;;11.93;;
6105;SDS011;3083;51.508;7.966;2022-11-21T06:10:55;33.93;;;9.60;;
6105;SDS011;3083;51.508;7.966;2022-11-21T06:13:22;35.20;;;10.33;;
6105;SDS011;3083;51.508;7.966;2022-11-21T06:15:50;27.47;;;10.37;;
6105;SDS011;3083;51.508;7.966;2022-11-21T06:18:18;27.63;;;9.60;;
6105;SDS011;3083;51.508;7.966;2022-11-21T06:20:45;35.27;;;10.53;;
6105;SDS011;3083;51.508;7.966;2022-11-21T06:23:14;35.23;;;9.23;;
6105;SDS011;3083;51.508;7.966;2022-11-21T06:25:41;35.70;;;12.17;;
6105;SDS011;3083;51.508;7.966;2022-11-21T06:28:09;27.80;;;10.80;;
6105;SDS011;3083;51.508;7.966;2022-11-21T06:30:37;34.57;;;12.13;;
6105;SDS011;3083;51.508;7.966;2022-11-21T06:33:05;40.07;;;11.33;;
6105;SDS011;3083;51.508;7.966;2022-11-21T06:35:35;30.80;;;10.50;;
6105;SDS011;3083;51.508;7.966;2022-11-21T06:38:04;34.10;;;10.70;;
6105;SDS011;3083;51.508;7.966;2022-11-21T06:40:32;28.27;;;10.07;;
6105;SDS011;3083;51.508;7.966;2022-11-21T06:42:59;27.33;;;8.50;;
6105;SDS011;3083;51.508;7.966;2022-11-21T06:45:26;34.57;;;9.60;;
6105;SDS011;3083;51.508;7.966;2022-11-21T06:47:54;41.10;;;11.40;;
6105;SDS011;3083;51.508;7.966;2022-11-21T06:50:20;36.07;;;11.00;;
6105;SDS011;3083;51.508;7.966;2022-11-21T06:52:48;35.77;;;11.50;;
6105;SDS011;3083;51.508;7.966;2022-11-21T06:55:15;34.67;;;11.50;;
6105;SDS011;3083;51.508;7.966;2022-11-21T06:57:43;27.87;;;9.80;;
6105;SDS011;3083;51.508;7.966;2022-11-21T07:00:10;34.97;;;10.13;;
6105;SDS011;3083;51.508;7.966;2022-11-21T07:02:38;25.90;;;9.27;;
6105;SDS011;3083;51.508;7.966;2022-11-21T07:05:05;37.03;;;12.10;;
6105;SDS011;3083;51.508;7.966;2022-11-21T07:07:32;29.43;;;10.40;;
6105;SDS011;3083;51.508;7.966;2022-11-21T07:09:59;38.60;;;11.50;;
6105;SDS011;3083;51.508;7.966;2022-11-21T07:12:26;34.63;;;11.97;;
6105;SDS011;3083;51.508;7.966;2022-11-21T07:15:12;31.73;;;13.53;;
6105;SDS011;3083;51.508;7.966;2022-11-21T07:17:39;35.00;;;13.10;;
6105;SDS011;3083;51.508;7.966;2022-11-21T07:20:06;38.57;;;13.63;;
6105;SDS011;3083;51.508;7.966;2022-11-21T07:22:34;40.47;;;14.70;;
6105;SDS011;3083;51.508;7.966;2022-11-21T07:25:01;36.47;;;13.10;;
6105;SDS011;3083;51.508;7.966;2022-11-21T07:27:28;35.37;;;13.27;;
6105;SDS011;3083;51.508;7.966;2022-11-21T07:29:55;38.23;;;12.37;;
6105;SDS011;3083;51.508;7.966;2022-11-21T07:32:24;42.83;;;12.47;;
6105;SDS011;3083;51.508;7.966;2022-11-21T07:34:51;34.00;;;12.00;;
6105;SDS011;3083;51.508;7.966;2022-11-21T07:37:18;31.50;;;12.10;;
6105;SDS011;3083;51.508;7.966;2022-11-21T07:39:45;37.00;;;10.67;;
6105;SDS011;3083;51.508;7.966;2022-11-21T07:42:13;27.67;;;10.37;;
6105;SDS011;3083;51.508;7.966;2022-11-21T07:44:39;34.37;;;11.07;;
6105;SDS011;3083;51.508;7.966;2022-11-21T07:47:06;41.00;;;13.50;;
6105;SDS011;3083;51.508;7.966;2022-11-21T07:49:35;37.93;;;15.23;;
6105;SDS011;3083;51.508;7.966;2022-11-21T07:52:02;35.20;;;13.97;;
6105;SDS011;3083;51.508;7.966;2022-11-21T07:54:29;35.67;;;13.80;;
6105;SDS011;3083;51.508;7.966;2022-11-21T07:56:56;49.00;;;15.30;;
6105;SDS011;3083;51.508;7.966;2022-11-21T07:59:23;37.10;;;16.47;;
6105;SDS011;3083;51.508;7.966;2022-11-21T08:01:50;41.17;;;17.57;;
6105;SDS011;3083;51.508;7.966;2022-11-21T08:04:17;38.63;;;16.67;;
6105;SDS011;3083;51.508;7.966;2022-11-21T08:06:46;40.10;;;16.00;;
6105;SDS011;3083;51.508;7.966;2022-11-21T08:09:12;34.53;;;15.97;;
6105;SDS011;3083;51.508;7.966;2022-11-21T08:11:39;45.67;;;16.40;;
6105;SDS011;3083;51.508;7.966;2022-11-21T08:14:06;45.60;;;17.33;;
6105;SDS011;3083;51.508;7.966;2022-11-21T08:16:33;45.60;;;16.40;;
6105;SDS011;3083;51.508;7.966;2022-11-21T08:19:00;48.50;;;17.13;;
6105;SDS011;3083;51.508;7.966;2022-11-21T08:21:27;41.30;;;16.50;;
6105;SDS011;3083;51.508;7.966;2022-11-21T08:23:56;40.37;;;18.20;;
6105;SDS011;3083;51.508;7.966;2022-11-21T08:26:23;45.90;;;19.13;;
6105;SDS011;3083;51.508;7.966;2022-11-21T08:28:50;44.27;;;18.37;;
6105;SDS011;3083;51.508;7.966;2022-11-21T08:31:17;42.50;;;16.80;;
6105;SDS011;3083;51.508;7.966;2022-11-21T08:33:44;41.03;;;14.40;;
6105;SDS011;3083;51.508;7.966;2022-11-21T08:36:11;37.83;;;13.90;;
6105;SDS011;3083;51.508;7.966;2022-11-21T08:38:38;38.67;;;13.87;;
6105;SDS011;3083;51.508;7.966;2022-11-21T08:41:06;42.37;;;15.50;;
6105;SDS011;3083;51.508;7.966;2022-11-21T08:43:53;43.13;;;15.83;;
6105;SDS011;3083;51.508;7.966;2022-11-21T08:46:19;47.73;;;15.57;;
6105;SDS011;3083;51.508;7.966;2022-11-21T08:48:51;36.90;;;15.53;;
6105;SDS011;3083;51.508;7.966;2022-11-21T08:51:18;41.30;;;17.20;;
6105;SDS011;3083;51.508;7.966;2022-11-21T08:53:45;42.83;;;15.93;;
6105;SDS011;3083;51.508;7.966;2022-11-21T08:56:13;45.17;;;16.20;;
6105;SDS011;3083;51.508;7.966;2022-11-21T08:58:40;45.67;;;15.27;;
6105;SDS011;3083;51.508;7.966;2022-11-21T09:01:07;36.40;;;12.07;;
6105;SDS011;3083;51.508;7.966;2022-11-21T09:03:34;36.67;;;11.60;;
6105;SDS011;3083;51.508;7.966;2022-11-21T09:06:01;39.67;;;12.83;;
6105;SDS011;3083;51.508;7.966;2022-11-21T09:08:28;29.87;;;11.40;;
6105;SDS011;3083;51.508;7.966;2022-11-21T09:10:55;37.13;;;12.37;;
6105;SDS011;3083;51.508;7.966;2022-11-21T09:13:23;31.67;;;12.90;;
6105;SDS011;3083;51.508;7.966;2022-11-21T09:15:50;28.87;;;11.40;;
6105;SDS011;3083;51.508;7.966;2022-11-21T09:18:35;32.07;;;10.87;;
6105;SDS011;3083;51.508;7.966;2022-11-21T09:21:02;40.00;;;12.00;;
6105;SDS011;3083;51.508;7.966;2022-11-21T09:23:28;32.67;;;12.20;;
6105;SDS011;3083;51.508;7.966;2022-11-21T09:25:55;29.83;;;11.43;;
6105;SDS011;3083;51.508;7.966;2022-11-21T09:28:24;31.10;;;10.80;;
6105;SDS011;3083;51.508;7.966;2022-11-21T09:30:50;43.83;;;12.40;;
6105;SDS011;3083;51.508;7.966;2022-11-21T09:33:17;31.77;;;10.00;;
6105;SDS011;3083;51.508;7.966;2022-11-21T09:35:44;32.60;;;11.47;;
6105;SDS011;3083;51.508;7.966;2022-11-21T09:38:11;35.10;;;10.93;;
6105;SDS011;3083;51.508;7.966;2022-11-21T09:40:40;39.83;;;13.00;;
6105;SDS011;3083;51.508;7.966;2022-11-21T09:43:16;35.90;;;13.27;;
6105;SDS011;3083;51.508;7.966;2022-11-21T09:46:01;28.90;;;11.17;;
6105;SDS011;3083;51.508;7.966;2022-11-21T09:48:35;35.77;;;12.37;;
6105;SDS011;3083;51.508;7.966;2022-11-21T09:51:12;30.33;;;11.73;;
6105;SDS011;3083;51.508;7.966;2022-11-21T09:53:45;29.90;;;11.30;;
6105;SDS011;3083;51.508;7.966;2022-11-21T09:56:18;33.50;;;11.97;;
6105;SDS011;3083;51.508;7.966;2022-11-21T09:58:50;30.77;;;11.43;;
6105;SDS011;3083;51.508;7.966;2022-11-21T10:01:28;35.63;;;10.40;;
6105;SDS011;3083;51.508;7.966;2022-11-21T10:03:56;31.07;;;11.27;;
6105;SDS011;3083;51.508;7.966;2022-11-21T10:06:27;30.30;;;11.47;;
6105;SDS011;3083;51.508;7.966;2022-11-21T10:08:57;35.37;;;12.23;;
6105;SDS011;3083;51.508;7.966;2022-11-21T10:11:36;31.37;;;11.60;;
6105;SDS011;3083;51.508;7.966;2022-11-21T10:14:25;32.53;;;11.40;;
6105;SDS011;3083;51.508;7.966;2022-11-21T10:17:08;29.73;;;11.93;;
6105;SDS011;3083;51.508;7.966;2022-11-21T10:19:47;24.30;;;10.10;;
6105;SDS011;3083;51.508;7.966;2022-11-21T10:22:28;33.33;;;11.97;;
6105;SDS011;3083;51.508;7.966;2022-11-21T10:25:11;39.80;;;12.13;;
6105;SDS011;3083;51.508;7.966;2022-11-21T10:27:40;35.30;;;12.07;;
6105;SDS011;3083;51.508;7.966;2022-11-21T10:30:16;36.07;;;13.50;;
6105;SDS011;3083;51.508;7.966;2022-11-21T10:32:45;29.57;;;11.40;;
6105;SDS011;3083;51.508;7.966;2022-11-21T10:35:15;37.93;;;12.87;;
6105;SDS011;3083;51.508;7.966;2022-11-21T10:37:47;33.60;;;12.33;;
6105;SDS011;3083;51.508;7.966;2022-11-21T10:40:23;36.10;;;13.10;;
6105;SDS011;3083;51.508;7.966;2022-11-21T10:42:57;39.57;;;12.70;;
6105;SDS011;3083;51.508;7.966;2022-11-21T10:45:50;35.60;;;11.90;;
6105;SDS011;3083;51.508;7.966;2022-11-21T10:48:16;27.97;;;12.67;;
6105;SDS011;3083;51.508;7.966;2022-11-21T10:50:47;38.47;;;13.40;;
6105;SDS011;3083;51.508;7.966;2022-11-21T10:53:25;41.30;;;13.60;;
6105;SDS011;3083;51.508;7.966;2022-11-21T10:56:15;52.00;;;13.70;;
6105;SDS011;3083;51.508;7.966;2022-11-21T10:58:45;46.03;;;14.00;;
6105;SDS011;3083;51.508;7.966;2022-11-21T11:01:22;50.53;;;16.30;;
6105;SDS011;3083;51.508;7.966;2022-11-21T11:04:04;42.17;;;13.40;;
6105;SDS011;3083;51.508;7.966;2022-11-21T11:06:33;63.90;;;15.87;;
6105;SDS011;3083;51.508;7.966;2022-11-21T11:09:00;63.60;;;17.30;;
6105;SDS011;3083;51.508;7.966;2022-11-21T11:11:27;65.17;;;16.77;;
6105;SDS011;3083;51.508;7.966;2022-11-21T11:13:55;54.30;;;15.30;;
6105;SDS011;3083;51.508;7.966;2022-11-21T11:16:25;52.63;;;16.67;;
6105;SDS011;3083;51.508;7.966;2022-11-21T11:18:55;58.63;;;15.10;;
6105;SDS011;3083;51.508;7.966;2022-11-21T11:21:24;43.30;;;14.80;;
6105;SDS011;3083;51.508;7.966;2022-11-21T11:23:53;57.77;;;15.57;;
6105;SDS011;3083;51.508;7.966;2022-11-21T11:26:31;42.77;;;14.47;;
6105;SDS011;3083;51.508;7.966;2022-11-21T11:29:06;61.30;;;14.83;;
6105;SDS011;3083;51.508;7.966;2022-11-21T11:31:41;54.10;;;16.43;;
6105;SDS011;3083;51.508;7.966;2022-11-21T11:34:10;46.23;;;15.10;;
6105;SDS011;3083;51.508;7.966;2022-11-21T11:36:42;52.63;;;15.97;;
6105;SDS011;3083;51.508;7.966;2022-11-21T11:39:20;50.57;;;18.77;;
6105;SDS011;3083;51.508;7.966;2022-11-21T11:42:05;44.97;;;14.40;;
6105;SDS011;3083;51.508;7.966;2022-11-21T11:45:15;48.27;;;15.73;;
6105;SDS011;3083;51.508;7.966;2022-11-21T11:48:09;48.30;;;15.50;;
6105;SDS011;3083;51.508;7.966;2022-11-21T11:50:37;44.93;;;17.43;;
6105;SDS011;3083;51.508;7.966;2022-11-21T11:53:10;51.57;;;17.70;;
6105;SDS011;3083;51.508;7.966;2022-11-21T11:55:42;49.77;;;15.40;;
6105;SDS011;3083;51.508;7.966;2022-11-21T11:58:15;50.67;;;16.07;;
6105;SDS011;3083;51.508;7.966;2022-11-21T12:00:47;63.37;;;20.80;;
6105;SDS011;3083;51.508;7.966;2022-11-21T12:03:20;63.30;;;19.10;;
6105;SDS011;3083;51.508;7.966;2022-11-21T12:05:54;62.60;;;19.27;;
6105;SDS011;3083;51.508;7.966;2022-11-21T12:08:28;63.60;;;21.60;;
6105;SDS011;3083;51.508;7.966;2022-11-21T12:11:05;67.03;;;20.03;;
6105;SDS011;3083;51.508;7.966;2022-11-21T12:13:58;55.10;;;18.30;;
6105;SDS011;3083;51.508;7.966;2022-11-21T12:16:36;67.00;;;19.97;;
6105;SDS011;3083;51.508;7.966;2022-11-21T12:19:09;63.33;;;20.90;;
6105;SDS011;3083;51.508;7.966;2022-11-21T12:21:39;77.57;;;23.27;;
6105;SDS011;3083;51.508;7.966;2022-11-21T12:24:07;71.27;;;20.90;;
6105;SDS011;3083;51.508;7.966;2022-11-21T12:26:39;68.53;;;21.37;;
6105;SDS011;3083;51.508;7.966;2022-11-21T12:29:21;53.27;;;18.90;;
6105;SDS011;3083;51.508;7.966;2022-11-21T12:32:00;64.77;;;27.50;;
6105;SDS011;3083;51.508;7.966;2022-11-21T12:34:48;49.47;;;16.57;;
6105;SDS011;3083;51.508;7.966;2022-11-21T12:37:31;39.07;;;14.60;;
6105;SDS011;3083;51.508;7.966;2022-11-21T12:40:06;43.57;;;16.60;;
6105;SDS011;3083;51.508;7.966;2022-11-21T12:42:43;56.53;;;16.63;;
6105;SDS011;3083;51.508;7.966;2022-11-21T12:45:24;46.67;;;15.63;;
6105;SDS011;3083;51.508;7.966;2022-11-21T12:51:11;29.70;;;13.23;;
6105;SDS011;3083;51.508;7.966;2022-11-21T12:57:27;24.03;;;11.70;;
6105;SDS011;3083;51.508;7.966;2022-11-21T13:00:03;26.17;;;10.63;;
6105;SDS011;3083;51.508;7.966;2022-11-21T13:02:39;30.43;;;13.00;;
6105;SDS011;3083;51.508;7.966;2022-11-21T13:05:29;30.90;;;11.47;;
6105;SDS011;3083;51.508;7.966;2022-11-21T13:08:01;25.50;;;11.00;;
6105;SDS011;3083;51.508;7.966;2022-11-21T13:10:31;27.43;;;13.10;;
6105;SDS011;3083;51.508;7.966;2022-11-21T13:13:00;26.50;;;10.07;;
6105;SDS011;3083;51.508;7.966;2022-11-21T13:15:36;27.20;;;10.60;;
6105;SDS011;3083;51.508;7.966;2022-11-21T13:18:14;21.93;;;9.17;;
6105;SDS011;3083;51.508;7.966;2022-11-21T13:20:45;23.77;;;9.80;;
6105;SDS011;3083;51.508;7.966;2022-11-21T13:29:06;18.43;;;9.30;;
6105;SDS011;3083;51.508;7.966;2022-11-21T13:31:35;20.43;;;9.90;;
6105;SDS011;3083;51.508;7.966;2022-11-21T13:34:02;22.70;;;10.33;;
6105;SDS011;3083;51.508;7.966;2022-11-21T13:36:37;24.03;;;9.87;;
6105;SDS011;3083;51.508;7.966;2022-11-21T13:42:09;23.17;;;9.83;;
6105;SDS011;3083;51.508;7.966;2022-11-21T13:44:57;22.47;;;9.83;;
6105;SDS011;3083;51.508;7.966;2022-11-21T13:50:58;19.93;;;8.47;;
6105;SDS011;3083;51.508;7.966;2022-11-21T13:53:48;22.50;;;7.93;;
6105;SDS011;3083;51.508;7.966;2022-11-21T13:56:37;19.90;;;9.10;;
6105;SDS011;3083;51.508;7.966;2022-11-21T13:59:24;20.40;;;10.87;;
6105;SDS011;3083;51.508;7.966;2022-11-21T14:02:04;19.80;;;9.93;;
6105;SDS011;3083;51.508;7.966;2022-11-21T14:04:56;23.33;;;9.20;;
6105;SDS011;3083;51.508;7.966;2022-11-21T14:07:36;25.13;;;9.30;;
6105;SDS011;3083;51.508;7.966;2022-11-21T14:10:05;25.30;;;9.90;;
6105;SDS011;3083;51.508;7.966;2022-11-21T14:12:47;20.90;;;9.97;;
6105;SDS011;3083;51.508;7.966;2022-11-21T14:15:20;20.57;;;9.23;;
6105;SDS011;3083;51.508;7.966;2022-11-21T14:17:54;21.10;;;8.70;;
6105;SDS011;3083;51.508;7.966;2022-11-21T14:20:24;17.57;;;8.30;;
6105;SDS011;3083;51.508;7.966;2022-11-21T14:22:54;17.80;;;8.70;;
6105;SDS011;3083;51.508;7.966;2022-11-21T14:25:23;17.23;;;7.47;;
6105;SDS011;3083;51.508;7.966;2022-11-21T14:28:01;18.37;;;7.67;;
6105;SDS011;3083;51.508;7.966;2022-11-21T14:30:31;17.27;;;8.20;;
6105;SDS011;3083;51.508;7.966;2022-11-21T14:33:24;16.47;;;8.60;;
6105;SDS011;3083;51.508;7.966;2022-11-21T14:36:00;19.43;;;7.97;;
6105;SDS011;3083;51.508;7.966;2022-11-21T14:38:30;14.97;;;7.87;;
6105;SDS011;3083;51.508;7.966;2022-11-21T14:44:01;17.97;;;9.10;;
6105;SDS011;3083;51.508;7.966;2022-11-21T14:46:43;15.30;;;8.10;;
6105;SDS011;3083;51.508;7.966;2022-11-21T14:49:16;19.33;;;8.10;;
6105;SDS011;3083;51.508;7.966;2022-11-21T14:51:45;17.00;;;7.87;;
6105;SDS011;3083;51.508;7.966;2022-11-21T14:54:15;14.53;;;7.43;;
6105;SDS011;3083;51.508;7.966;2022-11-21T14:56:45;17.60;;;8.53;;
6105;SDS011;3083;51.508;7.966;2022-11-21T14:59:17;21.70;;;10.00;;
6105;SDS011;3083;51.508;7.966;2022-11-21T15:01:54;16.43;;;7.63;;
6105;SDS011;3083;51.508;7.966;2022-11-21T15:04:26;17.10;;;8.23;;
6105;SDS011;3083;51.508;7.966;2022-11-21T15:06:54;20.43;;;8.57;;
6105;SDS011;3083;51.508;7.966;2022-11-21T15:09:20;20.23;;;9.70;;
6105;SDS011;3083;51.508;7.966;2022-11-21T15:11:49;14.73;;;6.70;;
6105;SDS011;3083;51.508;7.966;2022-11-21T15:14:22;19.40;;;9.10;;
6105;SDS011;3083;51.508;7.966;2022-11-21T15:16:53;16.70;;;7.40;;
6105;SDS011;3083;51.508;7.966;2022-11-21T15:19:22;16.10;;;6.63;;
6105;SDS011;3083;51.508;7.966;2022-11-21T15:21:51;15.90;;;6.37;;
6105;SDS011;3083;51.508;7.966;2022-11-21T15:24:27;14.80;;;6.60;;
6105;SDS011;3083;51.508;7.966;2022-11-21T15:32:57;19.10;;;7.70;;
6105;SDS011;3083;51.508;7.966;2022-11-21T15:35:37;16.03;;;6.70;;
6105;SDS011;3083;51.508;7.966;2022-11-21T15:41:23;11.87;;;5.23;;
6105;SDS011;3083;51.508;7.966;2022-11-21T15:43:52;12.07;;;5.03;;
6105;SDS011;3083;51.508;7.966;2022-11-21T15:46:22;11.70;;;5.67;;